sensor_id;sensor_type;location;lat;lon;timestamp;P1;durP1;ratioP1;P2;durP2;ratioP2
67715;SDS011;54508;43.238;25.306;2023-08-06T00:01:26;4.20;;;3.80;;
67715;SDS011;54508;43.238;25.306;2023-08-06T00:03:51;4.25;;;3.83;;
67715;SDS011;54508;43.238;25.306;2023-08-06T00:06:17;3.97;;;3.57;;
67715;SDS011;54508;43.238;25.306;2023-08-06T00:08:42;5.43;;;3.83;;
67715;SDS011;54508;43.238;25.306;2023-08-06T00:11:08;4.33;;;3.67;;
67715;SDS011;54508;43.238;25.306;2023-08-06T00:13:33;4.17;;;3.47;;
67715;SDS011;54508;43.238;25.306;2023-08-06T00:16:11;3.70;;;3.40;;
67715;SDS011;54508;43.238;25.306;2023-08-06T00:18:37;3.60;;;3.30;;
67715;SDS011;54508;43.238;25.306;2023-08-06T00:21:03;4.30;;;3.83;;
67715;SDS011;54508;43.238;25.306;2023-08-06T00:23:28;5.77;;;3.80;;
67715;SDS011;54508;43.238;25.306;2023-08-06T00:25:54;4.18;;;3.75;;
67715;SDS011;54508;43.238;25.306;2023-08-06T00:28:19;4.30;;;3.72;;
67715;SDS011;54508;43.238;25.306;2023-08-06T00:30:44;3.57;;;3.17;;
67715;SDS011;54508;43.238;25.306;2023-08-06T00:33:10;3.80;;;3.50;;
67715;SDS011;54508;43.238;25.306;2023-08-06T00:35:35;5.30;;;3.67;;
67715;SDS011;54508;43.238;25.306;2023-08-06T00:38:01;5.10;;;3.75;;
67715;SDS011;54508;43.238;25.306;2023-08-06T00:40:26;3.23;;;2.93;;
67715;SDS011;54508;43.238;25.306;2023-08-06T00:42:54;4.15;;;3.63;;
67715;SDS011;54508;43.238;25.306;2023-08-06T00:45:19;3.93;;;3.27;;
67715;SDS011;54508;43.238;25.306;2023-08-06T00:47:45;3.77;;;3.30;;
67715;SDS011;54508;43.238;25.306;2023-08-06T00:50:11;3.90;;;3.47;;
67715;SDS011;54508;43.238;25.306;2023-08-06T00:52:36;4.73;;;3.30;;
67715;SDS011;54508;43.238;25.306;2023-08-06T00:55:02;4.25;;;3.58;;
67715;SDS011;54508;43.238;25.306;2023-08-06T00:57:28;4.22;;;3.70;;
67715;SDS011;54508;43.238;25.306;2023-08-06T00:59:54;3.50;;;3.20;;
67715;SDS011;54508;43.238;25.306;2023-08-06T01:02:20;3.37;;;3.07;;
67715;SDS011;54508;43.238;25.306;2023-08-06T01:04:45;3.90;;;2.95;;
67715;SDS011;54508;43.238;25.306;2023-08-06T01:15:11;4.47;;;3.05;;
67715;SDS011;54508;43.238;25.306;2023-08-06T01:17:40;4.93;;;3.50;;
67715;SDS011;54508;43.238;25.306;2023-08-06T01:20:06;4.43;;;3.17;;
67715;SDS011;54508;43.238;25.306;2023-08-06T01:22:32;3.47;;;3.17;;
67715;SDS011;54508;43.238;25.306;2023-08-06T01:24:57;4.13;;;2.97;;
67715;SDS011;54508;43.238;25.306;2023-08-06T01:30:30;3.63;;;3.03;;
67715;SDS011;54508;43.238;25.306;2023-08-06T01:32:50;3.55;;;3.22;;
67715;SDS011;54508;43.238;25.306;2023-08-06T01:35:24;3.42;;;3.13;;
67715;SDS011;54508;43.238;25.306;2023-08-06T01:37:50;3.75;;;3.22;;
67715;SDS011;54508;43.238;25.306;2023-08-06T01:40:16;4.63;;;3.20;;
67715;SDS011;54508;43.238;25.306;2023-08-06T01:42:41;5.15;;;3.47;;
67715;SDS011;54508;43.238;25.306;2023-08-06T01:45:07;3.58;;;3.15;;
67715;SDS011;54508;43.238;25.306;2023-08-06T01:47:33;3.55;;;3.25;;
67715;SDS011;54508;43.238;25.306;2023-08-06T01:49:59;3.78;;;3.05;;
67715;SDS011;54508;43.238;25.306;2023-08-06T01:52:25;3.25;;;2.95;;
67715;SDS011;54508;43.238;25.306;2023-08-06T01:54:51;3.40;;;3.10;;
67715;SDS011;54508;43.238;25.306;2023-08-06T01:57:16;2.83;;;2.60;;
67715;SDS011;54508;43.238;25.306;2023-08-06T01:59:42;3.87;;;2.50;;
67715;SDS011;54508;43.238;25.306;2023-08-06T02:02:08;3.60;;;3.30;;
67715;SDS011;54508;43.238;25.306;2023-08-06T02:04:33;2.72;;;2.53;;
67715;SDS011;54508;43.238;25.306;2023-08-06T02:06:59;3.73;;;2.90;;
67715;SDS011;54508;43.238;25.306;2023-08-06T02:09:24;3.30;;;2.80;;
67715;SDS011;54508;43.238;25.306;2023-08-06T02:11:49;3.90;;;3.10;;
67715;SDS011;54508;43.238;25.306;2023-08-06T02:14:15;3.10;;;2.80;;
67715;SDS011;54508;43.238;25.306;2023-08-06T02:16:40;3.13;;;2.80;;
67715;SDS011;54508;43.238;25.306;2023-08-06T02:19:06;3.53;;;3.10;;
67715;SDS011;54508;43.238;25.306;2023-08-06T02:21:31;3.37;;;2.90;;
67715;SDS011;54508;43.238;25.306;2023-08-06T02:23:57;3.78;;;3.15;;
67715;SDS011;54508;43.238;25.306;2023-08-06T02:26:22;2.97;;;2.65;;
67715;SDS011;54508;43.238;25.306;2023-08-06T02:28:48;3.10;;;2.80;;
67715;SDS011;54508;43.238;25.306;2023-08-06T02:31:13;3.30;;;2.93;;
67715;SDS011;54508;43.238;25.306;2023-08-06T02:33:39;3.22;;;2.92;;
67715;SDS011;54508;43.238;25.306;2023-08-06T02:36:04;3.37;;;2.97;;
67715;SDS011;54508;43.238;25.306;2023-08-06T02:38:30;4.03;;;2.93;;
67715;SDS011;54508;43.238;25.306;2023-08-06T02:40:56;3.10;;;2.78;;
67715;SDS011;54508;43.238;25.306;2023-08-06T02:43:22;2.70;;;2.50;;
67715;SDS011;54508;43.238;25.306;2023-08-06T02:45:47;3.40;;;2.78;;
67715;SDS011;54508;43.238;25.306;2023-08-06T02:48:13;3.23;;;2.93;;
67715;SDS011;54508;43.238;25.306;2023-08-06T02:50:38;3.73;;;2.67;;
67715;SDS011;54508;43.238;25.306;2023-08-06T02:53:05;2.95;;;2.45;;
67715;SDS011;54508;43.238;25.306;2023-08-06T02:55:31;3.25;;;2.45;;
67715;SDS011;54508;43.238;25.306;2023-08-06T02:57:58;4.90;;;2.67;;
67715;SDS011;54508;43.238;25.306;2023-08-06T03:00:24;3.08;;;2.40;;
67715;SDS011;54508;43.238;25.306;2023-08-06T03:02:49;3.17;;;2.80;;
67715;SDS011;54508;43.238;25.306;2023-08-06T03:05:15;3.23;;;2.70;;
67715;SDS011;54508;43.238;25.306;2023-08-06T03:07:40;3.93;;;3.03;;
67715;SDS011;54508;43.238;25.306;2023-08-06T03:10:06;3.22;;;2.30;;
67715;SDS011;54508;43.238;25.306;2023-08-06T03:12:31;3.13;;;2.47;;
67715;SDS011;54508;43.238;25.306;2023-08-06T03:14:57;3.37;;;2.50;;
67715;SDS011;54508;43.238;25.306;2023-08-06T03:17:22;3.05;;;2.30;;
67715;SDS011;54508;43.238;25.306;2023-08-06T03:19:48;3.30;;;2.57;;
67715;SDS011;54508;43.238;25.306;2023-08-06T03:22:13;3.17;;;2.53;;
67715;SDS011;54508;43.238;25.306;2023-08-06T03:24:39;2.97;;;2.27;;
67715;SDS011;54508;43.238;25.306;2023-08-06T03:27:04;3.00;;;2.70;;
67715;SDS011;54508;43.238;25.306;2023-08-06T03:29:30;3.65;;;2.95;;
67715;SDS011;54508;43.238;25.306;2023-08-06T03:31:55;3.73;;;2.67;;
67715;SDS011;54508;43.238;25.306;2023-08-06T03:34:21;2.80;;;2.50;;
67715;SDS011;54508;43.238;25.306;2023-08-06T03:36:46;3.30;;;2.70;;
67715;SDS011;54508;43.238;25.306;2023-08-06T03:39:12;3.40;;;2.40;;
67715;SDS011;54508;43.238;25.306;2023-08-06T03:41:39;3.45;;;2.75;;
67715;SDS011;54508;43.238;25.306;2023-08-06T03:44:04;3.03;;;2.55;;
67715;SDS011;54508;43.238;25.306;2023-08-06T03:46:30;2.67;;;2.30;;
67715;SDS011;54508;43.238;25.306;2023-08-06T03:48:59;2.60;;;2.40;;
67715;SDS011;54508;43.238;25.306;2023-08-06T03:51:25;3.08;;;2.78;;
67715;SDS011;54508;43.238;25.306;2023-08-06T03:53:51;2.93;;;2.63;;
67715;SDS011;54508;43.238;25.306;2023-08-06T03:56:16;3.07;;;2.67;;
67715;SDS011;54508;43.238;25.306;2023-08-06T03:58:42;2.58;;;2.38;;
67715;SDS011;54508;43.238;25.306;2023-08-06T04:01:07;3.83;;;2.70;;
67715;SDS011;54508;43.238;25.306;2023-08-06T04:03:33;3.50;;;3.00;;
67715;SDS011;54508;43.238;25.306;2023-08-06T04:05:59;3.08;;;2.45;;
67715;SDS011;54508;43.238;25.306;2023-08-06T04:08:24;2.90;;;2.33;;
67715;SDS011;54508;43.238;25.306;2023-08-06T04:10:52;2.93;;;2.50;;
67715;SDS011;54508;43.238;25.306;2023-08-06T04:13:18;3.00;;;2.65;;
67715;SDS011;54508;43.238;25.306;2023-08-06T04:15:44;2.70;;;2.47;;
67715;SDS011;54508;43.238;25.306;2023-08-06T04:18:10;2.90;;;2.60;;
67715;SDS011;54508;43.238;25.306;2023-08-06T04:20:42;2.87;;;2.50;;
67715;SDS011;54508;43.238;25.306;2023-08-06T04:23:08;2.75;;;2.40;;
67715;SDS011;54508;43.238;25.306;2023-08-06T04:25:34;3.23;;;2.60;;
67715;SDS011;54508;43.238;25.306;2023-08-06T04:27:59;2.63;;;2.43;;
67715;SDS011;54508;43.238;25.306;2023-08-06T04:30:25;2.65;;;2.13;;
67715;SDS011;54508;43.238;25.306;2023-08-06T04:32:50;4.87;;;2.30;;
67715;SDS011;54508;43.238;25.306;2023-08-06T04:35:16;2.73;;;2.37;;
67715;SDS011;54508;43.238;25.306;2023-08-06T04:37:41;2.47;;;2.22;;
67715;SDS011;54508;43.238;25.306;2023-08-06T04:40:07;2.87;;;2.47;;
67715;SDS011;54508;43.238;25.306;2023-08-06T04:42:33;2.60;;;2.22;;
67715;SDS011;54508;43.238;25.306;2023-08-06T04:44:58;2.60;;;2.40;;
67715;SDS011;54508;43.238;25.306;2023-08-06T04:47:25;3.10;;;2.30;;
67715;SDS011;54508;43.238;25.306;2023-08-06T04:49:51;2.73;;;2.40;;
67715;SDS011;54508;43.238;25.306;2023-08-06T04:52:16;2.73;;;2.10;;
67715;SDS011;54508;43.238;25.306;2023-08-06T04:54:43;4.40;;;2.50;;
67715;SDS011;54508;43.238;25.306;2023-08-06T04:57:08;2.83;;;2.15;;
67715;SDS011;54508;43.238;25.306;2023-08-06T04:59:34;2.73;;;2.30;;
67715;SDS011;54508;43.238;25.306;2023-08-06T05:01:59;2.60;;;2.03;;
67715;SDS011;54508;43.238;25.306;2023-08-06T05:04:25;2.77;;;2.47;;
67715;SDS011;54508;43.238;25.306;2023-08-06T05:06:50;2.67;;;2.37;;
67715;SDS011;54508;43.238;25.306;2023-08-06T05:09:16;3.15;;;2.20;;
67715;SDS011;54508;43.238;25.306;2023-08-06T05:11:41;2.55;;;2.35;;
67715;SDS011;54508;43.238;25.306;2023-08-06T05:14:07;2.90;;;2.43;;
67715;SDS011;54508;43.238;25.306;2023-08-06T05:16:32;2.50;;;2.10;;
67715;SDS011;54508;43.238;25.306;2023-08-06T05:18:57;3.40;;;2.10;;
67715;SDS011;54508;43.238;25.306;2023-08-06T05:21:23;3.08;;;2.50;;
67715;SDS011;54508;43.238;25.306;2023-08-06T05:23:48;2.47;;;2.13;;
67715;SDS011;54508;43.238;25.306;2023-08-06T05:26:14;3.33;;;2.10;;
67715;SDS011;54508;43.238;25.306;2023-08-06T05:28:43;2.85;;;2.10;;
67715;SDS011;54508;43.238;25.306;2023-08-06T05:31:09;2.87;;;2.57;;
67715;SDS011;54508;43.238;25.306;2023-08-06T05:33:34;2.88;;;2.53;;
67715;SDS011;54508;43.238;25.306;2023-08-06T05:36:00;2.00;;;1.80;;
67715;SDS011;54508;43.238;25.306;2023-08-06T05:38:25;2.83;;;1.90;;
67715;SDS011;54508;43.238;25.306;2023-08-06T05:40:54;3.22;;;2.05;;
67715;SDS011;54508;43.238;25.306;2023-08-06T05:43:20;6.83;;;2.00;;
67715;SDS011;54508;43.238;25.306;2023-08-06T05:45:46;2.20;;;2.00;;
67715;SDS011;54508;43.238;25.306;2023-08-06T05:48:11;2.97;;;2.10;;
67715;SDS011;54508;43.238;25.306;2023-08-06T05:50:37;3.03;;;2.15;;
67715;SDS011;54508;43.238;25.306;2023-08-06T05:53:03;2.50;;;1.97;;
67715;SDS011;54508;43.238;25.306;2023-08-06T05:55:28;2.93;;;2.07;;
67715;SDS011;54508;43.238;25.306;2023-08-06T05:57:54;3.67;;;2.60;;
67715;SDS011;54508;43.238;25.306;2023-08-06T06:00:20;2.55;;;1.83;;
67715;SDS011;54508;43.238;25.306;2023-08-06T06:02:46;3.95;;;1.98;;
67715;SDS011;54508;43.238;25.306;2023-08-06T06:05:12;2.47;;;1.97;;
67715;SDS011;54508;43.238;25.306;2023-08-06T06:07:37;3.20;;;2.23;;
67715;SDS011;54508;43.238;25.306;2023-08-06T06:10:03;3.10;;;2.47;;
67715;SDS011;54508;43.238;25.306;2023-08-06T06:12:28;3.77;;;2.20;;
67715;SDS011;54508;43.238;25.306;2023-08-06T06:14:54;3.92;;;2.47;;
67715;SDS011;54508;43.238;25.306;2023-08-06T06:17:19;2.92;;;2.17;;
67715;SDS011;54508;43.238;25.306;2023-08-06T06:19:45;3.00;;;2.40;;
67715;SDS011;54508;43.238;25.306;2023-08-06T06:22:11;3.08;;;2.25;;
67715;SDS011;54508;43.238;25.306;2023-08-06T06:24:37;2.63;;;2.40;;
67715;SDS011;54508;43.238;25.306;2023-08-06T06:27:02;2.60;;;2.20;;
67715;SDS011;54508;43.238;25.306;2023-08-06T06:29:28;2.90;;;2.23;;
67715;SDS011;54508;43.238;25.306;2023-08-06T06:31:54;3.58;;;2.08;;
67715;SDS011;54508;43.238;25.306;2023-08-06T06:34:19;2.33;;;2.13;;
67715;SDS011;54508;43.238;25.306;2023-08-06T06:36:45;2.75;;;2.13;;
67715;SDS011;54508;43.238;25.306;2023-08-06T06:39:11;3.30;;;2.42;;
67715;SDS011;54508;43.238;25.306;2023-08-06T06:41:36;3.43;;;2.33;;
67715;SDS011;54508;43.238;25.306;2023-08-06T06:44:01;2.47;;;2.20;;
67715;SDS011;54508;43.238;25.306;2023-08-06T06:46:27;4.13;;;2.50;;
67715;SDS011;54508;43.238;25.306;2023-08-06T06:48:52;2.70;;;2.28;;
67715;SDS011;54508;43.238;25.306;2023-08-06T06:51:18;3.07;;;2.60;;
67715;SDS011;54508;43.238;25.306;2023-08-06T06:53:43;3.50;;;2.50;;
67715;SDS011;54508;43.238;25.306;2023-08-06T06:56:09;2.73;;;2.47;;
67715;SDS011;54508;43.238;25.306;2023-08-06T06:58:34;3.47;;;2.38;;
67715;SDS011;54508;43.238;25.306;2023-08-06T07:01:00;2.67;;;2.20;;
67715;SDS011;54508;43.238;25.306;2023-08-06T07:03:25;3.23;;;2.57;;
67715;SDS011;54508;43.238;25.306;2023-08-06T07:05:51;2.60;;;2.20;;
67715;SDS011;54508;43.238;25.306;2023-08-06T07:08:16;2.60;;;2.40;;
67715;SDS011;54508;43.238;25.306;2023-08-06T07:10:43;3.58;;;2.33;;
67715;SDS011;54508;43.238;25.306;2023-08-06T07:13:09;2.73;;;2.30;;
67715;SDS011;54508;43.238;25.306;2023-08-06T07:15:34;4.20;;;2.20;;
67715;SDS011;54508;43.238;25.306;2023-08-06T07:18:00;2.60;;;2.40;;
67715;SDS011;54508;43.238;25.306;2023-08-06T07:20:26;2.60;;;2.38;;
67715;SDS011;54508;43.238;25.306;2023-08-06T07:22:54;2.72;;;2.33;;
67715;SDS011;54508;43.238;25.306;2023-08-06T07:25:19;3.17;;;2.75;;
67715;SDS011;54508;43.238;25.306;2023-08-06T07:27:45;2.87;;;2.27;;
67715;SDS011;54508;43.238;25.306;2023-08-06T07:30:10;3.23;;;2.63;;
67715;SDS011;54508;43.238;25.306;2023-08-06T07:32:36;2.80;;;2.53;;
67715;SDS011;54508;43.238;25.306;2023-08-06T07:35:01;3.00;;;2.53;;
67715;SDS011;54508;43.238;25.306;2023-08-06T07:37:28;2.67;;;2.40;;
67715;SDS011;54508;43.238;25.306;2023-08-06T07:39:54;3.03;;;2.53;;
67715;SDS011;54508;43.238;25.306;2023-08-06T07:42:22;3.67;;;2.50;;
67715;SDS011;54508;43.238;25.306;2023-08-06T07:44:52;2.93;;;2.53;;
67715;SDS011;54508;43.238;25.306;2023-08-06T07:47:18;3.58;;;2.70;;
67715;SDS011;54508;43.238;25.306;2023-08-06T07:49:44;3.07;;;2.60;;
67715;SDS011;54508;43.238;25.306;2023-08-06T07:52:09;3.13;;;2.75;;
67715;SDS011;54508;43.238;25.306;2023-08-06T07:54:36;3.10;;;2.55;;
67715;SDS011;54508;43.238;25.306;2023-08-06T07:57:01;2.70;;;2.50;;
67715;SDS011;54508;43.238;25.306;2023-08-06T07:59:27;2.95;;;2.40;;
67715;SDS011;54508;43.238;25.306;2023-08-06T08:01:52;2.80;;;2.50;;
67715;SDS011;54508;43.238;25.306;2023-08-06T08:04:17;2.57;;;2.37;;
67715;SDS011;54508;43.238;25.306;2023-08-06T08:06:43;2.60;;;2.40;;
67715;SDS011;54508;43.238;25.306;2023-08-06T08:09:08;3.13;;;2.72;;
67715;SDS011;54508;43.238;25.306;2023-08-06T08:11:35;3.97;;;2.50;;
67715;SDS011;54508;43.238;25.306;2023-08-06T08:14:01;5.45;;;3.13;;
67715;SDS011;54508;43.238;25.306;2023-08-06T08:16:27;3.67;;;2.67;;
67715;SDS011;54508;43.238;25.306;2023-08-06T08:18:53;2.80;;;2.50;;
67715;SDS011;54508;43.238;25.306;2023-08-06T08:21:18;3.23;;;2.90;;
67715;SDS011;54508;43.238;25.306;2023-08-06T08:23:44;2.70;;;2.50;;
67715;SDS011;54508;43.238;25.306;2023-08-06T08:26:10;3.27;;;2.50;;
67715;SDS011;54508;43.238;25.306;2023-08-06T08:28:35;3.28;;;2.40;;
67715;SDS011;54508;43.238;25.306;2023-08-06T08:31:01;2.97;;;2.42;;
67715;SDS011;54508;43.238;25.306;2023-08-06T08:33:26;2.50;;;2.30;;
67715;SDS011;54508;43.238;25.306;2023-08-06T08:35:52;2.87;;;2.47;;
67715;SDS011;54508;43.238;25.306;2023-08-06T08:38:17;4.27;;;2.63;;
67715;SDS011;54508;43.238;25.306;2023-08-06T08:40:46;3.10;;;2.75;;
67715;SDS011;54508;43.238;25.306;2023-08-06T08:43:14;2.85;;;2.55;;
67715;SDS011;54508;43.238;25.306;2023-08-06T08:45:40;3.22;;;2.38;;
67715;SDS011;54508;43.238;25.306;2023-08-06T08:48:08;4.15;;;2.78;;
67715;SDS011;54508;43.238;25.306;2023-08-06T08:50:36;3.00;;;2.70;;
67715;SDS011;54508;43.238;25.306;2023-08-06T08:53:01;3.20;;;2.80;;
67715;SDS011;54508;43.238;25.306;2023-08-06T08:55:27;2.80;;;2.60;;
67715;SDS011;54508;43.238;25.306;2023-08-06T08:57:53;3.63;;;2.63;;
67715;SDS011;54508;43.238;25.306;2023-08-06T09:00:18;4.90;;;2.97;;
67715;SDS011;54508;43.238;25.306;2023-08-06T09:02:44;3.50;;;2.75;;
67715;SDS011;54508;43.238;25.306;2023-08-06T09:05:11;3.72;;;2.65;;
67715;SDS011;54508;43.238;25.306;2023-08-06T09:07:46;3.83;;;3.00;;
67715;SDS011;54508;43.238;25.306;2023-08-06T09:10:13;2.95;;;2.65;;
67715;SDS011;54508;43.238;25.306;2023-08-06T09:12:40;2.85;;;2.40;;
67715;SDS011;54508;43.238;25.306;2023-08-06T09:15:06;2.63;;;2.38;;
67715;SDS011;54508;43.238;25.306;2023-08-06T09:17:32;3.08;;;2.60;;
67715;SDS011;54508;43.238;25.306;2023-08-06T09:19:57;4.32;;;2.72;;
67715;SDS011;54508;43.238;25.306;2023-08-06T09:22:24;2.47;;;2.25;;
67715;SDS011;54508;43.238;25.306;2023-08-06T09:24:49;4.57;;;2.75;;
67715;SDS011;54508;43.238;25.306;2023-08-06T09:27:15;2.87;;;2.57;;
67715;SDS011;54508;43.238;25.306;2023-08-06T09:29:41;4.17;;;2.83;;
67715;SDS011;54508;43.238;25.306;2023-08-06T09:32:10;3.65;;;3.15;;
67715;SDS011;54508;43.238;25.306;2023-08-06T09:34:39;3.53;;;2.80;;
67715;SDS011;54508;43.238;25.306;2023-08-06T09:37:05;3.25;;;2.70;;
67715;SDS011;54508;43.238;25.306;2023-08-06T09:39:31;3.30;;;3.00;;
67715;SDS011;54508;43.238;25.306;2023-08-06T09:41:57;3.10;;;2.80;;
67715;SDS011;54508;43.238;25.306;2023-08-06T09:44:24;3.72;;;2.47;;
67715;SDS011;54508;43.238;25.306;2023-08-06T09:46:50;3.03;;;2.63;;
67715;SDS011;54508;43.238;25.306;2023-08-06T09:49:20;3.90;;;2.67;;
67715;SDS011;54508;43.238;25.306;2023-08-06T09:51:52;3.10;;;2.50;;
67715;SDS011;54508;43.238;25.306;2023-08-06T09:54:22;3.80;;;2.92;;
67715;SDS011;54508;43.238;25.306;2023-08-06T09:56:48;4.20;;;3.10;;
67715;SDS011;54508;43.238;25.306;2023-08-06T09:59:14;3.40;;;2.60;;
67715;SDS011;54508;43.238;25.306;2023-08-06T10:01:41;2.65;;;2.42;;
67715;SDS011;54508;43.238;25.306;2023-08-06T10:04:06;3.58;;;2.78;;
67715;SDS011;54508;43.238;25.306;2023-08-06T10:06:37;3.00;;;2.70;;
67715;SDS011;54508;43.238;25.306;2023-08-06T10:09:03;4.50;;;2.97;;
67715;SDS011;54508;43.238;25.306;2023-08-06T10:11:29;3.67;;;2.55;;
67715;SDS011;54508;43.238;25.306;2023-08-06T10:13:56;3.55;;;2.72;;
67715;SDS011;54508;43.238;25.306;2023-08-06T10:16:25;3.30;;;3.00;;
67715;SDS011;54508;43.238;25.306;2023-08-06T10:18:51;4.13;;;3.40;;
67715;SDS011;54508;43.238;25.306;2023-08-06T10:21:17;3.17;;;2.83;;
67715;SDS011;54508;43.238;25.306;2023-08-06T10:23:43;3.97;;;2.92;;
67715;SDS011;54508;43.238;25.306;2023-08-06T10:26:08;3.33;;;2.93;;
67715;SDS011;54508;43.238;25.306;2023-08-06T10:28:37;3.67;;;3.22;;
67715;SDS011;54508;43.238;25.306;2023-08-06T10:31:04;3.20;;;2.90;;
67715;SDS011;54508;43.238;25.306;2023-08-06T10:33:40;3.05;;;2.75;;
67715;SDS011;54508;43.238;25.306;2023-08-06T10:36:06;3.65;;;2.80;;
67715;SDS011;54508;43.238;25.306;2023-08-06T10:38:34;4.15;;;2.90;;
67715;SDS011;54508;43.238;25.306;2023-08-06T10:41:02;3.72;;;2.83;;
67715;SDS011;54508;43.238;25.306;2023-08-06T10:43:32;3.80;;;2.60;;
67715;SDS011;54508;43.238;25.306;2023-08-06T10:45:59;4.45;;;3.10;;
67715;SDS011;54508;43.238;25.306;2023-08-06T10:48:38;2.97;;;2.65;;
67715;SDS011;54508;43.238;25.306;2023-08-06T10:51:08;3.47;;;2.70;;
67715;SDS011;54508;43.238;25.306;2023-08-06T10:53:35;3.45;;;2.95;;
67715;SDS011;54508;43.238;25.306;2023-08-06T10:56:01;3.40;;;2.90;;
67715;SDS011;54508;43.238;25.306;2023-08-06T10:58:33;3.95;;;2.83;;
67715;SDS011;54508;43.238;25.306;2023-08-06T11:00:58;3.78;;;3.25;;
67715;SDS011;54508;43.238;25.306;2023-08-06T11:03:24;3.83;;;3.17;;
67715;SDS011;54508;43.238;25.306;2023-08-06T11:05:52;3.13;;;2.83;;
67715;SDS011;54508;43.238;25.306;2023-08-06T11:08:25;4.07;;;2.93;;
67715;SDS011;54508;43.238;25.306;2023-08-06T11:10:51;3.58;;;2.90;;
67715;SDS011;54508;43.238;25.306;2023-08-06T11:13:16;3.50;;;3.03;;
67715;SDS011;54508;43.238;25.306;2023-08-06T11:15:44;3.85;;;3.45;;
67715;SDS011;54508;43.238;25.306;2023-08-06T11:18:09;4.30;;;2.80;;
67715;SDS011;54508;43.238;25.306;2023-08-06T11:20:35;4.33;;;3.13;;
67715;SDS011;54508;43.238;25.306;2023-08-06T11:23:01;3.50;;;2.53;;
67715;SDS011;54508;43.238;25.306;2023-08-06T11:25:27;6.43;;;2.97;;
67715;SDS011;54508;43.238;25.306;2023-08-06T11:27:52;4.22;;;3.10;;
67715;SDS011;54508;43.238;25.306;2023-08-06T11:30:18;4.95;;;2.90;;
67715;SDS011;54508;43.238;25.306;2023-08-06T11:32:47;4.03;;;2.80;;
67715;SDS011;54508;43.238;25.306;2023-08-06T11:35:13;5.05;;;3.20;;
67715;SDS011;54508;43.238;25.306;2023-08-06T11:37:39;4.07;;;3.00;;
67715;SDS011;54508;43.238;25.306;2023-08-06T11:40:09;6.45;;;3.03;;
67715;SDS011;54508;43.238;25.306;2023-08-06T11:42:36;5.18;;;2.95;;
67715;SDS011;54508;43.238;25.306;2023-08-06T11:45:05;5.03;;;2.97;;
67715;SDS011;54508;43.238;25.306;2023-08-06T11:47:30;4.97;;;3.00;;
67715;SDS011;54508;43.238;25.306;2023-08-06T11:49:56;3.40;;;2.70;;
67715;SDS011;54508;43.238;25.306;2023-08-06T11:52:22;6.70;;;3.17;;
67715;SDS011;54508;43.238;25.306;2023-08-06T11:57:35;3.67;;;2.80;;
67715;SDS011;54508;43.238;25.306;2023-08-06T12:00:09;4.55;;;2.60;;
67715;SDS011;54508;43.238;25.306;2023-08-06T12:02:35;4.88;;;3.70;;
67715;SDS011;54508;43.238;25.306;2023-08-06T12:07:47;4.22;;;3.08;;
67715;SDS011;54508;43.238;25.306;2023-08-06T12:10:14;3.85;;;2.90;;
67715;SDS011;54508;43.238;25.306;2023-08-06T12:12:40;3.15;;;2.85;;
67715;SDS011;54508;43.238;25.306;2023-08-06T12:15:06;5.47;;;2.97;;
67715;SDS011;54508;43.238;25.306;2023-08-06T12:17:32;3.72;;;2.60;;
67715;SDS011;54508;43.238;25.306;2023-08-06T12:19:58;2.70;;;2.50;;
67715;SDS011;54508;43.238;25.306;2023-08-06T12:22:24;3.20;;;2.60;;
67715;SDS011;54508;43.238;25.306;2023-08-06T12:24:49;3.22;;;2.63;;
67715;SDS011;54508;43.238;25.306;2023-08-06T12:27:15;2.60;;;2.40;;
67715;SDS011;54508;43.238;25.306;2023-08-06T12:29:44;3.35;;;3.05;;
67715;SDS011;54508;43.238;25.306;2023-08-06T12:32:11;3.70;;;2.83;;
67715;SDS011;54508;43.238;25.306;2023-08-06T12:34:38;2.97;;;2.60;;
67715;SDS011;54508;43.238;25.306;2023-08-06T12:37:06;4.38;;;2.67;;
67715;SDS011;54508;43.238;25.306;2023-08-06T12:39:32;6.00;;;2.70;;
67715;SDS011;54508;43.238;25.306;2023-08-06T12:42:07;4.45;;;3.17;;
67715;SDS011;54508;43.238;25.306;2023-08-06T12:44:32;3.47;;;2.47;;
67715;SDS011;54508;43.238;25.306;2023-08-06T12:46:58;4.10;;;2.80;;
67715;SDS011;54508;43.238;25.306;2023-08-06T12:49:24;4.13;;;2.97;;
67715;SDS011;54508;43.238;25.306;2023-08-06T12:51:51;3.25;;;2.40;;
67715;SDS011;54508;43.238;25.306;2023-08-06T12:54:17;3.28;;;2.97;;
67715;SDS011;54508;43.238;25.306;2023-08-06T12:56:43;3.13;;;2.83;;
67715;SDS011;54508;43.238;25.306;2023-08-06T12:59:10;3.90;;;2.88;;
67715;SDS011;54508;43.238;25.306;2023-08-06T13:01:36;2.77;;;2.40;;
67715;SDS011;54508;43.238;25.306;2023-08-06T13:04:02;3.03;;;2.60;;
67715;SDS011;54508;43.238;25.306;2023-08-06T13:06:28;2.83;;;2.40;;
67715;SDS011;54508;43.238;25.306;2023-08-06T13:08:53;3.40;;;2.60;;
67715;SDS011;54508;43.238;25.306;2023-08-06T13:11:19;3.93;;;2.77;;
67715;SDS011;54508;43.238;25.306;2023-08-06T13:13:44;2.93;;;2.60;;
67715;SDS011;54508;43.238;25.306;2023-08-06T13:16:10;3.43;;;2.43;;
67715;SDS011;54508;43.238;25.306;2023-08-06T13:18:35;3.57;;;2.70;;
67715;SDS011;54508;43.238;25.306;2023-08-06T13:21:01;3.83;;;2.70;;
67715;SDS011;54508;43.238;25.306;2023-08-06T13:23:26;3.53;;;2.80;;
67715;SDS011;54508;43.238;25.306;2023-08-06T13:25:53;4.27;;;2.50;;
67715;SDS011;54508;43.238;25.306;2023-08-06T13:28:18;4.40;;;2.60;;
67715;SDS011;54508;43.238;25.306;2023-08-06T13:30:44;2.73;;;2.53;;
67715;SDS011;54508;43.238;25.306;2023-08-06T13:33:11;4.57;;;2.63;;
67715;SDS011;54508;43.238;25.306;2023-08-06T13:35:36;3.35;;;2.60;;
67715;SDS011;54508;43.238;25.306;2023-08-06T13:38:02;4.72;;;2.80;;
67715;SDS011;54508;43.238;25.306;2023-08-06T13:40:28;2.40;;;2.20;;
67715;SDS011;54508;43.238;25.306;2023-08-06T13:42:55;4.07;;;2.47;;
67715;SDS011;54508;43.238;25.306;2023-08-06T13:45:20;5.93;;;2.73;;
67715;SDS011;54508;43.238;25.306;2023-08-06T13:47:46;2.87;;;2.50;;
67715;SDS011;54508;43.238;25.306;2023-08-06T13:50:11;6.03;;;2.33;;
67715;SDS011;54508;43.238;25.306;2023-08-06T13:52:37;3.10;;;2.35;;
67715;SDS011;54508;43.238;25.306;2023-08-06T13:55:02;4.80;;;2.50;;
67715;SDS011;54508;43.238;25.306;2023-08-06T13:57:29;3.33;;;2.75;;
67715;SDS011;54508;43.238;25.306;2023-08-06T13:59:54;3.23;;;2.80;;
67715;SDS011;54508;43.238;25.306;2023-08-06T14:02:20;3.15;;;2.50;;
67715;SDS011;54508;43.238;25.306;2023-08-06T14:04:45;4.67;;;2.60;;
67715;SDS011;54508;43.238;25.306;2023-08-06T14:07:11;4.63;;;2.60;;
67715;SDS011;54508;43.238;25.306;2023-08-06T14:09:36;2.60;;;2.40;;
67715;SDS011;54508;43.238;25.306;2023-08-06T14:12:02;2.95;;;2.55;;
67715;SDS011;54508;43.238;25.306;2023-08-06T14:14:28;2.57;;;2.17;;
67715;SDS011;54508;43.238;25.306;2023-08-06T14:16:53;2.47;;;2.10;;
67715;SDS011;54508;43.238;25.306;2023-08-06T14:19:19;2.73;;;2.20;;
67715;SDS011;54508;43.238;25.306;2023-08-06T14:21:45;3.70;;;2.60;;
67715;SDS011;54508;43.238;25.306;2023-08-06T14:24:11;2.80;;;2.20;;
67715;SDS011;54508;43.238;25.306;2023-08-06T14:26:36;2.55;;;2.20;;
67715;SDS011;54508;43.238;25.306;2023-08-06T14:29:02;3.23;;;2.30;;
67715;SDS011;54508;43.238;25.306;2023-08-06T14:31:27;2.87;;;2.60;;
67715;SDS011;54508;43.238;25.306;2023-08-06T14:33:53;4.97;;;2.50;;
67715;SDS011;54508;43.238;25.306;2023-08-06T14:36:18;5.13;;;2.60;;
67715;SDS011;54508;43.238;25.306;2023-08-06T14:38:44;2.57;;;2.33;;
67715;SDS011;54508;43.238;25.306;2023-08-06T14:41:09;3.55;;;2.38;;
67715;SDS011;54508;43.238;25.306;2023-08-06T14:43:35;3.13;;;2.30;;